Time;durP1;ratioP1;P1;durP2;ratioP2;P2;SDS_P1;SDS_P2;PMS_P1;PMS_P2;Temp;Humidity;BMP_temperature;BMP_pressure;BME280_temperature;BME280_humidity;BME280_pressure;Samples;Min_cycle;Max_cycle;Signal;HPM_P1;HPM_P2
2021/05/17 00:03:01;;;;;;;0.87;0.50;;;19.10;39.40;;;;;;8309047;28;20041;-50
2021/05/17 00:07:05;;;;;;;0.55;0.50;;;19.00;39.40;;;;;;8333244;28;20038;-51
2021/05/17 00:11:05;;;;;;;0.73;0.55;;;19.00;39.40;;;;;;8327095;28;20080;-50
2021/05/17 00:15:09;;;;;;;0.60;0.50;;;19.00;39.40;;;;;;8315201;28;20103;-49
2021/05/17 00:19:10;;;;;;;0.45;0.40;;;19.10;39.40;;;;;;8318062;28;20044;-48
2021/05/17 00:23:11;;;;;;;0.70;0.50;;;19.10;39.50;;;;;;8326660;28;20091;-49
2021/05/17 00:27:12;;;;;;;0.53;0.40;;;19.00;39.40;;;;;;8332558;28;20380;-50
2021/05/17 00:31:13;;;;;;;0.70;0.50;;;19.00;39.40;;;;;;8305722;28;20045;-49
2021/05/17 00:35:15;;;;;;;2.40;0.63;;;19.00;39.40;;;;;;8293936;28;20042;-49
2021/05/17 00:39:16;;;;;;;;;;;19.00;39.50;;;;;;8295879;28;20030;-49
2021/05/17 00:43:24;;;;;;;0.50;0.50;;;19.00;39.40;;;;;;8299728;28;19910;-48
2021/05/17 00:47:28;;;;;;;0.55;0.43;;;19.00;39.50;;;;;;8326016;28;20052;-49
2021/05/17 00:51:28;;;;;;;0.47;0.40;;;19.00;39.50;;;;;;8327850;28;20510;-50
2021/05/17 00:55:29;;;;;;;1.10;0.50;;;19.00;39.50;;;;;;8325936;28;20091;-48
2021/05/17 00:59:33;;;;;;;0.40;0.40;;;19.00;39.50;;;;;;8319464;28;20277;-48
2021/05/17 01:03:35;;;;;;;0.63;0.50;;;19.00;39.50;;;;;;8299150;28;20284;-49
2021/05/17 01:07:37;;;;;;;0.52;0.52;;;19.00;39.50;;;;;;8318330;28;20045;-49
2021/05/17 01:11:38;;;;;;;0.70;0.60;;;18.90;39.50;;;;;;8326858;28;20126;-49
2021/05/17 01:15:39;;;;;;;0.73;0.50;;;18.90;39.40;;;;;;8326832;28;20076;-51
2021/05/17 01:19:48;;;;;;;0.83;0.43;;;18.90;39.40;;;;;;8329473;28;20041;-50
2021/05/17 01:23:55;;;;;;;0.98;0.30;;;18.90;39.40;;;;;;8326947;28;20041;-49
2021/05/17 01:27:56;;;;;;;0.60;0.40;;;18.90;39.40;;;;;;8326584;28;20046;-48
2021/05/17 01:32:01;;;;;;;0.50;0.45;;;18.90;39.40;;;;;;8324760;28;20159;-49
2021/05/17 01:36:03;;;;;;;1.52;0.60;;;18.90;39.40;;;;;;8326453;28;20033;-47
2021/05/17 01:40:06;;;;;;;0.85;0.35;;;18.90;39.50;;;;;;8329924;28;20029;-48
2021/05/17 01:44:12;;;;;;;0.63;0.45;;;18.90;39.50;;;;;;8324453;28;20021;-48
2021/05/17 01:48:12;;;;;;;0.88;0.65;;;18.90;39.50;;;;;;8325753;28;20049;-48
2021/05/17 01:52:14;;;;;;;0.63;0.30;;;18.90;39.50;;;;;;8326017;28;20128;-48
2021/05/17 01:56:15;;;;;;;0.57;0.50;;;18.90;39.50;;;;;;8328422;28;20318;-48
2021/05/17 02:00:17;;;;;;;0.55;0.40;;;18.90;39.50;;;;;;8325761;28;20029;-48
2021/05/17 02:04:18;;;;;;;0.70;0.40;;;18.90;39.50;;;;;;8326321;28;20034;-48
2021/05/17 02:08:19;;;;;;;0.70;0.60;;;18.90;39.50;;;;;;8323895;28;20045;-47
2021/05/17 02:12:24;;;;;;;1.02;0.63;;;18.90;39.50;;;;;;8325464;28;20441;-47
2021/05/17 02:16:24;;;;;;;0.43;0.43;;;18.90;39.50;;;;;;8329646;28;20034;-47
2021/05/17 02:20:29;;;;;;;0.67;0.40;;;18.90;39.50;;;;;;8323248;28;20058;-48
2021/05/17 02:24:30;;;;;;;0.52;0.45;;;18.90;39.50;;;;;;8325178;28;20516;-49
2021/05/17 02:28:32;;;;;;;0.75;0.63;;;18.90;39.50;;;;;;8323181;28;20053;-48
2021/05/17 02:32:32;;;;;;;0.40;0.40;;;18.90;39.50;;;;;;8329622;28;20545;-47
2021/05/17 02:36:33;;;;;;;0.60;0.40;;;18.90;39.50;;;;;;8325063;28;20026;-47
2021/05/17 02:40:35;;;;;;;0.60;0.40;;;18.90;39.50;;;;;;8322675;28;20041;-49
2021/05/17 02:44:35;;;;;;;0.60;0.40;;;18.90;39.50;;;;;;8324543;28;20042;-47
2021/05/17 02:48:43;;;;;;;1.27;0.60;;;18.80;39.40;;;;;;8325187;28;20037;-47
2021/05/17 02:52:45;;;;;;;0.98;0.47;;;18.80;39.50;;;;;;8334201;28;20033;-48
2021/05/17 02:57:03;;;;;;;0.40;0.40;;;18.80;39.50;;;;;;8331300;28;20041;-47
2021/05/17 03:01:15;;;;;;;2.38;0.50;;;18.80;39.50;;;;;;8309823;28;20045;-47
2021/05/17 03:05:16;;;;;;;1.60;0.85;;;18.80;39.50;;;;;;8296591;28;20438;-47
2021/05/17 03:09:18;;;;;;;0.73;0.63;;;18.80;39.50;;;;;;8298071;28;20044;-48
2021/05/17 03:13:19;;;;;;;0.55;0.52;;;18.80;39.60;;;;;;8302275;28;20284;-47
2021/05/17 03:17:20;;;;;;;1.23;0.50;;;18.80;39.60;;;;;;8303293;28;20026;-47
2021/05/17 03:21:23;;;;;;;0.52;0.47;;;18.80;39.60;;;;;;8315147;28;20517;-49
2021/05/17 03:25:32;;;;;;;0.30;0.30;;;18.80;39.60;;;;;;8297870;28;20076;-49
2021/05/17 03:29:33;;;;;;;0.30;0.30;;;18.80;39.60;;;;;;8324355;28;20125;-48
2021/05/17 03:33:33;;;;;;;0.40;0.40;;;18.80;39.50;;;;;;8297658;28;20449;-48
2021/05/17 03:37:34;;;;;;;1.53;0.67;;;18.80;39.50;;;;;;8295757;28;20034;-49
2021/05/17 03:41:34;;;;;;;2.07;0.50;;;18.80;39.50;;;;;;8297170;28;20034;-47
2021/05/17 03:45:36;;;;;;;0.50;0.40;;;18.80;39.50;;;;;;8299337;28;20058;-48
2021/05/17 03:49:36;;;;;;;0.85;0.32;;;18.80;39.50;;;;;;8298573;28;20030;-47
2021/05/17 03:53:39;;;;;;;0.50;0.50;;;18.80;39.50;;;;;;8297143;28;20064;-48
2021/05/17 03:57:39;;;;;;;0.73;0.60;;;18.80;39.50;;;;;;8296705;28;20038;-51
2021/05/17 04:01:40;;;;;;;0.47;0.30;;;18.80;39.50;;;;;;8318499;28;20160;-49
2021/05/17 04:05:54;;;;;;;0.53;0.50;;;18.80;39.50;;;;;;8301005;28;20038;-48
2021/05/17 04:14:14;;;;;;;0.82;0.40;;;18.80;39.50;;;;;;8301086;28;20044;-49
2021/05/17 04:18:16;;;;;;;0.47;0.47;;;18.80;39.50;;;;;;8314109;28;20388;-49
2021/05/17 04:22:17;;;;;;;1.25;0.50;;;18.80;39.50;;;;;;8295854;28;20050;-48
2021/05/17 04:26:17;;;;;;;1.10;0.70;;;18.70;39.50;;;;;;8329896;28;20514;-49
2021/05/17 04:30:18;;;;;;;0.30;0.30;;;18.80;39.60;;;;;;8328501;28;20103;-48
2021/05/17 04:34:19;;;;;;;0.60;0.57;;;18.80;39.50;;;;;;8328400;28;20037;-48
2021/05/17 04:38:20;;;;;;;0.75;0.40;;;18.80;39.60;;;;;;8294835;28;20038;-48
2021/05/17 04:42:20;;;;;;;0.90;0.40;;;18.80;39.60;;;;;;8315634;28;20521;-48
2021/05/17 04:46:21;;;;;;;0.93;0.50;;;18.80;39.50;;;;;;8304050;28;20057;-49
2021/05/17 04:50:23;;;;;;;2.33;0.70;;;18.80;39.60;;;;;;8325531;28;20095;-48
2021/05/17 04:54:23;;;;;;;1.40;0.47;;;18.70;39.50;;;;;;8312012;28;20030;-49
2021/05/17 04:58:24;;;;;;;0.47;0.40;;;18.80;39.50;;;;;;8321003;28;20057;-48
2021/05/17 05:02:24;;;;;;;0.50;0.50;;;18.80;39.60;;;;;;8297079;28;20018;-48
2021/05/17 05:06:25;;;;;;;0.60;0.50;;;18.80;39.50;;;;;;8294619;28;20574;-49
2021/05/17 05:10:25;;;;;;;1.13;0.50;;;18.70;39.50;;;;;;8318545;28;20441;-49
2021/05/17 05:14:26;;;;;;;0.67;0.50;;;18.70;39.50;;;;;;8323759;28;20107;-48
2021/05/17 05:18:26;;;;;;;0.43;0.30;;;18.70;39.50;;;;;;8331255;28;20029;-48
2021/05/17 05:22:27;;;;;;;0.53;0.50;;;18.70;39.50;;;;;;8324845;28;20033;-51
2021/05/17 05:31:11;;;;;;;0.55;0.43;;;18.70;39.60;;;;;;8326644;28;20151;-49
2021/05/17 05:35:12;;;;;;;0.65;0.57;;;18.70;39.60;;;;;;8318565;28;20084;-48
2021/05/17 05:39:13;;;;;;;0.57;0.50;;;18.70;39.60;;;;;;8312264;28;20044;-47
2021/05/17 05:43:13;;;;;;;0.47;0.37;;;18.70;39.60;;;;;;8326042;28;20037;-49
2021/05/17 05:47:16;;;;;;;0.50;0.50;;;18.70;39.60;;;;;;8324279;28;20092;-47
2021/05/17 05:51:22;;;;;;;0.75;0.68;;;18.70;39.60;;;;;;8325933;28;20029;-48
2021/05/17 05:55:23;;;;;;;1.08;0.40;;;18.70;39.60;;;;;;8330241;28;20062;-48
2021/05/17 05:59:23;;;;;;;0.90;0.50;;;18.70;39.60;;;;;;8323958;28;20060;-48
2021/05/17 06:03:24;;;;;;;0.37;0.37;;;18.70;39.60;;;;;;8325523;28;20040;-48
2021/05/17 06:07:24;;;;;;;0.77;0.50;;;18.70;39.60;;;;;;8325030;28;20037;-47
2021/05/17 06:11:27;;;;;;;0.87;0.53;;;18.70;39.60;;;;;;8323649;28;20026;-48
2021/05/17 06:15:28;;;;;;;1.17;0.55;;;18.70;39.60;;;;;;8329946;28;20033;-48
2021/05/17 06:19:28;;;;;;;0.95;0.55;;;18.70;39.60;;;;;;8323714;28;20038;-46
2021/05/17 06:23:29;;;;;;;1.60;0.73;;;18.70;39.60;;;;;;8324887;28;20037;-49
2021/05/17 06:27:30;;;;;;;2.08;0.50;;;18.70;39.60;;;;;;8324956;28;20046;-49
2021/05/17 06:31:31;;;;;;;1.85;0.60;;;18.70;39.60;;;;;;8327591;28;20397;-49
2021/05/17 06:35:35;;;;;;;0.88;0.50;;;18.70;39.60;;;;;;8301052;28;20036;-47
2021/05/17 06:39:35;;;;;;;1.15;0.60;;;18.70;39.60;;;;;;8306950;28;20483;-48
2021/05/17 06:43:37;;;;;;;0.40;0.40;;;18.70;39.60;;;;;;8291646;28;20164;-51
2021/05/17 06:47:38;;;;;;;0.85;0.40;;;18.70;39.60;;;;;;8325726;28;20509;-48
2021/05/17 06:51:38;;;;;;;0.83;0.60;;;18.70;39.60;;;;;;8328267;28;20030;-49
2021/05/17 06:55:50;;;;;;;1.57;0.60;;;18.70;39.60;;;;;;8322917;28;20042;-49
2021/05/17 06:59:57;;;;;;;1.27;0.50;;;18.70;39.60;;;;;;8324760;28;20128;-48
2021/05/17 07:03:58;;;;;;;0.50;0.50;;;18.70;40.20;;;;;;8324593;28;20043;-49
2021/05/17 07:12:23;;;;;;;0.82;0.60;;;18.70;39.70;;;;;;8324336;28;20033;-49
2021/05/17 07:16:23;;;;;;;1.15;0.60;;;18.70;39.70;;;;;;8300194;28;20061;-48
2021/05/17 07:23:37;;;;;;;0.60;0.60;;;18.70;39.70;;;;;;8290077;28;20034;-48
2021/05/17 07:24:53;;;;;;;0.95;0.60;;;18.70;39.70;;;;;;8291457;28;20085;-48
2021/05/17 07:28:54;;;;;;;1.40;0.60;;;18.70;39.70;;;;;;8294184;28;20487;-49
2021/05/17 07:32:54;;;;;;;1.10;0.63;;;18.70;39.70;;;;;;8291702;28;20042;-47
2021/05/17 07:36:55;;;;;;;0.67;0.60;;;18.70;39.70;;;;;;8314038;28;20033;-48
2021/05/17 07:40:57;;;;;;;0.80;0.57;;;18.70;39.70;;;;;;8299985;28;20034;-49
2021/05/17 07:44:57;;;;;;;0.47;0.45;;;18.70;39.70;;;;;;8309514;28;20061;-47
2021/05/17 07:49:13;;;;;;;1.03;0.60;;;18.70;39.70;;;;;;8333901;28;20042;-48
2021/05/17 07:53:14;;;;;;;1.83;0.75;;;18.70;39.80;;;;;;8327210;28;20371;-47
2021/05/17 07:57:15;;;;;;;0.60;0.50;;;18.70;39.70;;;;;;8344604;28;20041;-51
2021/05/17 08:01:15;;;;;;;1.95;0.70;;;18.80;39.80;;;;;;8329301;28;20431;-51
2021/05/17 08:05:17;;;;;;;0.70;0.60;;;18.70;39.70;;;;;;8325055;28;20030;-48
2021/05/17 08:09:18;;;;;;;;;;;18.70;39.70;;;;;;8296428;28;20065;-48
2021/05/17 08:13:18;;;;;;;0.68;0.65;;;18.70;39.70;;;;;;8296037;28;20362;-47
2021/05/17 08:17:19;;;;;;;0.87;0.80;;;18.70;39.70;;;;;;8294376;28;20109;-48
2021/05/17 08:21:20;;;;;;;0.57;0.57;;;18.80;40.00;;;;;;8311137;28;20494;-48
2021/05/17 08:25:20;;;;;;;1.13;0.88;;;18.70;39.70;;;;;;8332767;28;20041;-49
2021/05/17 08:29:22;;;;;;;0.77;0.70;;;18.70;39.70;;;;;;8326075;28;20073;-48
2021/05/17 08:33:23;;;;;;;0.82;0.75;;;18.70;39.70;;;;;;8311586;28;20034;-48
2021/05/17 08:37:24;;;;;;;0.93;0.70;;;18.70;39.70;;;;;;8295036;28;20209;-48
2021/05/17 08:41:25;;;;;;;0.87;0.60;;;18.70;39.70;;;;;;8330492;28;20037;-48
2021/05/17 08:45:25;;;;;;;1.33;0.80;;;18.80;39.80;;;;;;8327626;28;20033;-48
2021/05/17 08:49:26;;;;;;;0.73;0.73;;;18.80;39.80;;;;;;8327364;28;20288;-47
2021/05/17 08:53:26;;;;;;;0.83;0.70;;;18.80;39.70;;;;;;8325757;28;20112;-47
2021/05/17 08:57:27;;;;;;;0.80;0.70;;;18.80;40.30;;;;;;8331905;28;20546;-47
2021/05/17 09:01:28;;;;;;;0.73;0.70;;;18.80;39.70;;;;;;8300886;28;20076;-49
2021/05/17 09:05:32;;;;;;;0.97;0.70;;;18.80;39.70;;;;;;8326914;28;20080;-49
2021/05/17 09:09:38;;;;;;;0.98;0.70;;;18.90;39.70;;;;;;8326931;28;20288;-49
2021/05/17 09:13:39;;;;;;;0.55;0.55;;;18.90;39.70;;;;;;8325057;28;20469;-48
2021/05/17 09:17:54;;;;;;;0.70;0.57;;;18.90;39.70;;;;;;8321029;28;20038;-48
2021/05/17 09:21:58;;;;;;;0.65;0.65;;;18.90;39.60;;;;;;8293898;28;20049;-49
2021/05/17 09:26:07;;;;;;;0.90;0.70;;;18.80;39.60;;;;;;8292071;28;20414;-51
2021/05/17 09:30:08;;;;;;;0.75;0.60;;;18.90;39.60;;;;;;8306649;28;20034;-47
2021/05/17 09:34:09;;;;;;;0.70;0.70;;;18.90;39.70;;;;;;8304375;28;20450;-48
2021/05/17 09:38:24;;;;;;;0.63;0.60;;;18.90;39.60;;;;;;8296366;28;20022;-49
2021/05/17 09:42:25;;;;;;;1.10;0.70;;;18.90;39.60;;;;;;8294349;28;20037;-47
2021/05/17 09:46:26;;;;;;;1.08;0.77;;;18.90;39.70;;;;;;8321310;28;20545;-52
2021/05/17 09:50:26;;;;;;;2.80;0.90;;;18.90;39.70;;;;;;8294884;28;20026;-49
2021/05/17 09:54:27;;;;;;;1.43;0.60;;;18.90;39.70;;;;;;8299529;28;20037;-49
2021/05/17 09:58:31;;;;;;;1.07;0.80;;;18.90;39.70;;;;;;8294219;28;20092;-50
2021/05/17 10:02:40;;;;;;;0.68;0.68;;;18.90;39.70;;;;;;8327195;28;20030;-51
2021/05/17 10:06:53;;;;;;;1.25;0.70;;;18.90;39.70;;;;;;8325170;28;20506;-51
2021/05/17 10:10:54;;;;;;;2.28;0.60;;;18.90;39.60;;;;;;8323530;28;20048;-48
2021/05/17 10:14:55;;;;;;;0.60;0.60;;;18.90;39.70;;;;;;8329400;28;20038;-47
2021/05/17 10:18:56;;;;;;;1.50;0.63;;;18.90;39.70;;;;;;8325140;28;20118;-47
2021/05/17 10:22:58;;;;;;;0.50;0.50;;;19.00;39.70;;;;;;8319649;28;20038;-48
2021/05/17 10:27:02;;;;;;;1.00;0.52;;;19.00;39.70;;;;;;8292344;28;20133;-49
2021/05/17 10:31:14;;;;;;;1.13;0.90;;;19.00;39.80;;;;;;8296784;28;20026;-48
2021/05/17 10:35:20;;;;;;;1.33;0.60;;;19.00;40.30;;;;;;8316863;28;20119;-47
2021/05/17 10:39:27;;;;;;;1.05;0.50;;;19.00;39.70;;;;;;8292083;28;20076;-48
2021/05/17 10:44:02;;;;;;;0.60;0.50;;;19.00;39.70;;;;;;8314949;28;20042;-48
2021/05/17 10:48:14;;;;;;;0.65;0.65;;;19.00;39.70;;;;;;8324779;28;20508;-50
2021/05/17 10:52:18;;;;;;;0.75;0.40;;;19.00;39.70;;;;;;8324356;28;20038;-49
2021/05/17 10:56:54;;;;;;;1.25;0.60;;;19.00;39.70;;;;;;8327044;28;20030;-48
2021/05/17 11:01:24;;;;;;;0.63;0.63;;;19.00;39.70;;;;;;8324387;28;20079;-48
2021/05/17 11:05:30;;;;;;;0.50;0.45;;;19.00;39.70;;;;;;8315107;28;20041;-48
2021/05/17 11:09:55;;;;;;;0.98;0.68;;;19.00;39.70;;;;;;8291816;28;20168;-48
2021/05/17 11:14:19;;;;;;;1.05;0.60;;;19.00;39.70;;;;;;8324511;28;20038;-49
2021/05/17 11:18:23;;;;;;;0.90;0.70;;;19.00;39.70;;;;;;8330655;28;20026;-47
2021/05/17 11:22:52;;;;;;;1.08;0.80;;;19.00;39.70;;;;;;8334802;28;20034;-48
2021/05/17 11:26:58;;;;;;;1.23;0.70;;;19.00;39.70;;;;;;8328525;28;20522;-48
2021/05/17 11:31:22;;;;;;;0.60;0.55;;;19.00;39.80;;;;;;8330257;28;20030;-49
2021/05/17 11:35:23;;;;;;;1.92;0.82;;;19.00;39.70;;;;;;8328188;28;20033;-49
2021/05/17 11:39:25;;;;;;;0.50;0.50;;;19.00;39.80;;;;;;8329904;28;20492;-49
2021/05/17 11:43:29;;;;;;;0.80;0.50;;;19.00;39.80;;;;;;8334172;28;20030;-47
2021/05/17 11:47:34;;;;;;;0.80;0.60;;;19.00;39.90;;;;;;8328994;28;20045;-47
2021/05/17 11:51:35;;;;;;;1.25;0.52;;;19.10;39.90;;;;;;8329712;28;20492;-48
2021/05/17 11:55:45;;;;;;;0.83;0.60;;;19.10;39.90;;;;;;8301835;28;20120;-48
2021/05/17 11:59:49;;;;;;;0.50;0.50;;;19.10;39.90;;;;;;8296626;28;20060;-51
2021/05/17 12:03:50;;;;;;;0.95;0.63;;;19.10;39.90;;;;;;8300806;28;20046;-51
2021/05/17 12:07:53;;;;;;;0.80;0.53;;;19.10;39.90;;;;;;8294567;28;20115;-47
2021/05/17 12:11:54;;;;;;;1.15;0.60;;;19.10;39.90;;;;;;8296075;28;20092;-48
2021/05/17 12:15:54;;;;;;;1.23;0.57;;;19.10;39.90;;;;;;8316089;28;20034;-48
2021/05/17 12:20:00;;;;;;;2.27;0.83;;;19.20;39.90;;;;;;8331392;28;20033;-49
2021/05/17 12:24:02;;;;;;;0.60;0.50;;;19.20;39.90;;;;;;8327776;28;20529;-49
2021/05/17 12:28:03;;;;;;;0.63;0.60;;;19.20;39.90;;;;;;8328935;28;20050;-49
2021/05/17 12:32:08;;;;;;;0.97;0.60;;;19.20;40.00;;;;;;8326773;28;20116;-49
2021/05/17 12:36:09;;;;;;;1.13;0.60;;;19.20;40.00;;;;;;8315105;28;20204;-51
2021/05/17 12:40:12;;;;;;;0.50;0.50;;;19.30;40.00;;;;;;8278189;28;20158;-48
2021/05/17 12:44:35;;;;;;;0.88;0.68;;;19.30;40.00;;;;;;8293162;28;20171;-48
2021/05/17 12:48:40;;;;;;;0.90;0.70;;;19.30;40.50;;;;;;8299102;28;20053;-47
2021/05/17 12:52:41;;;;;;;0.88;0.50;;;19.30;39.90;;;;;;8350356;28;20037;-47
2021/05/17 12:56:41;;;;;;;0.77;0.50;;;19.30;39.90;;;;;;8320778;28;20041;-47
2021/05/17 13:00:48;;;;;;;0.90;0.77;;;19.30;39.90;;;;;;8294701;28;20065;-46
2021/05/17 13:04:55;;;;;;;0.95;0.60;;;19.30;39.80;;;;;;8295584;28;20029;-47
2021/05/17 13:09:07;;;;;;;0.60;0.60;;;19.40;39.80;;;;;;8327364;28;20371;-46
2021/05/17 13:13:07;;;;;;;;;;;19.40;39.80;;;;;;8327373;28;20592;-46
2021/05/17 13:17:08;;;;;;;1.10;0.52;;;19.30;39.70;;;;;;8309240;28;19944;-45
2021/05/17 13:21:13;;;;;;;1.17;0.50;;;19.30;39.70;;;;;;8308459;28;20120;-47
2021/05/17 13:30:03;;;;;;;0.65;0.55;;;19.30;39.80;;;;;;8292193;28;20056;-47
2021/05/17 13:34:09;;;;;;;0.60;0.57;;;19.30;39.90;;;;;;8287642;28;20548;-48
2021/05/17 13:38:10;;;;;;;0.85;0.65;;;19.30;39.90;;;;;;8328963;28;20046;-47
2021/05/17 13:42:11;;;;;;;1.73;0.87;;;19.40;39.90;;;;;;8326243;28;20056;-47
2021/05/17 13:46:12;;;;;;;0.93;0.50;;;19.40;39.90;;;;;;8325894;28;20144;-46
2021/05/17 13:50:16;;;;;;;1.30;0.60;;;19.40;39.80;;;;;;8324184;28;20061;-47
2021/05/17 13:54:18;;;;;;;0.73;0.57;;;19.40;39.80;;;;;;8325597;28;20040;-47
2021/05/17 13:58:19;;;;;;;0.77;0.50;;;19.40;39.70;;;;;;8330053;28;20489;-46
2021/05/17 14:02:20;;;;;;;0.50;0.50;;;19.50;39.70;;;;;;8299741;28;20036;-47
2021/05/17 14:06:20;;;;;;;1.07;0.60;;;19.50;39.70;;;;;;8324948;28;20038;-48
2021/05/17 14:10:21;;;;;;;0.57;0.50;;;19.50;39.70;;;;;;8325139;28;20041;-48
2021/05/17 14:14:21;;;;;;;0.70;0.60;;;19.50;39.60;;;;;;8328266;28;20071;-46
2021/05/17 14:18:22;;;;;;;0.70;0.70;;;19.50;39.60;;;;;;8310087;28;20034;-47
2021/05/17 14:22:22;;;;;;;1.03;0.87;;;19.50;39.70;;;;;;8292381;28;20046;-47
2021/05/17 14:26:23;;;;;;;1.13;0.70;;;19.50;39.60;;;;;;8296491;28;20123;-45
2021/05/17 14:30:24;;;;;;;0.93;0.60;;;19.50;39.60;;;;;;8313302;28;20482;-48
2021/05/17 14:34:25;;;;;;;1.75;0.70;;;19.50;39.70;;;;;;8291899;28;20034;-48
2021/05/17 14:38:25;;;;;;;0.63;0.50;;;19.40;39.60;;;;;;8321885;28;20116;-47
2021/05/17 14:42:26;;;;;;;1.17;0.60;;;19.50;39.60;;;;;;8308652;28;20030;-47
2021/05/17 14:46:26;;;;;;;2.63;0.90;;;19.50;39.60;;;;;;8295439;28;20059;-48
2021/05/17 14:50:27;;;;;;;1.20;0.47;;;19.40;39.50;;;;;;8301521;28;20026;-47
2021/05/17 14:54:28;;;;;;;1.00;0.70;;;19.40;39.50;;;;;;8313640;28;20144;-47
2021/05/17 14:58:28;;;;;;;0.83;0.50;;;19.40;39.50;;;;;;8320650;28;20040;-49
2021/05/17 15:02:29;;;;;;;0.60;0.50;;;19.40;39.60;;;;;;8306438;28;20025;-48
2021/05/17 15:06:29;;;;;;;0.70;0.50;;;19.40;39.50;;;;;;8335525;28;20111;-51
2021/05/17 15:10:30;;;;;;;1.50;0.70;;;19.40;39.50;;;;;;8329015;28;20486;-50
2021/05/17 15:14:31;;;;;;;0.47;0.40;;;19.40;40.10;;;;;;8330700;28;20033;-49
2021/05/17 15:18:31;;;;;;;1.03;0.50;;;19.40;39.50;;;;;;8330816;28;20092;-48
2021/05/17 15:22:32;;;;;;;0.70;0.30;;;19.40;39.60;;;;;;8329398;28;20042;-50
2021/05/17 15:26:33;;;;;;;0.30;0.30;;;19.40;39.50;;;;;;8324484;28;20041;-49
2021/05/17 15:30:33;;;;;;;0.40;0.30;;;19.50;39.60;;;;;;8297584;28;20030;-48
2021/05/17 15:34:34;;;;;;;0.60;0.50;;;19.50;39.60;;;;;;8321013;28;20030;-49
2021/05/17 15:38:34;;;;;;;0.40;0.40;;;19.40;39.50;;;;;;8345412;28;20030;-49
2021/05/17 15:42:35;;;;;;;1.23;0.57;;;19.50;39.60;;;;;;8333955;28;20543;-49
2021/05/17 15:46:36;;;;;;;0.70;0.50;;;19.50;39.60;;;;;;8327890;28;20079;-49
2021/05/17 15:50:36;;;;;;;0.73;0.53;;;19.50;39.60;;;;;;8329697;28;20034;-49
2021/05/17 15:54:37;;;;;;;0.80;0.40;;;19.50;39.60;;;;;;8329136;28;20053;-48
2021/05/17 15:58:40;;;;;;;0.80;0.50;;;19.50;39.60;;;;;;8331177;28;20322;-48
2021/05/17 16:02:41;;;;;;;0.70;0.60;;;19.50;39.60;;;;;;8328944;28;20112;-50
2021/05/17 16:06:42;;;;;;;0.70;0.50;;;19.50;39.60;;;;;;8328862;28;20502;-48
2021/05/17 16:10:46;;;;;;;1.17;0.40;;;19.50;39.60;;;;;;8327272;28;20390;-48
2021/05/17 16:14:53;;;;;;;0.47;0.40;;;19.50;39.60;;;;;;8329117;28;20029;-51
2021/05/17 16:23:13;;;;;;;0.38;0.38;;;19.40;39.60;;;;;;8326894;28;20060;-53
2021/05/17 16:27:14;;;;;;;0.67;0.50;;;19.50;39.60;;;;;;8328118;28;20144;-49
2021/05/17 16:31:16;;;;;;;0.80;0.80;;;19.40;39.60;;;;;;8328378;28;20044;-52
2021/05/17 16:35:17;;;;;;;1.55;0.50;;;19.40;39.60;;;;;;8330219;28;20037;-51
2021/05/17 16:39:18;;;;;;;0.77;0.37;;;19.40;39.60;;;;;;8329273;28;20045;-49
2021/05/17 16:43:19;;;;;;;0.80;0.52;;;19.40;39.70;;;;;;8327812;28;20044;-49
2021/05/17 16:47:19;;;;;;;1.17;0.77;;;19.40;39.70;;;;;;8326032;28;20049;-49
2021/05/17 16:51:20;;;;;;;0.33;0.33;;;19.40;39.60;;;;;;8327365;28;20044;-49
2021/05/17 16:55:22;;;;;;;0.50;0.50;;;19.50;39.60;;;;;;8332091;28;20109;-49
2021/05/17 16:59:23;;;;;;;0.65;0.40;;;19.40;39.60;;;;;;8325718;28;20477;-48
2021/05/17 17:03:24;;;;;;;;;;;19.40;39.60;;;;;;8327653;28;20041;-48
2021/05/17 17:07:24;;;;;;;0.63;0.57;;;19.40;39.60;;;;;;8326827;28;19925;-49
2021/05/17 17:11:25;;;;;;;0.87;0.70;;;19.40;39.70;;;;;;8328896;28;20443;-47
2021/05/17 17:15:26;;;;;;;0.88;0.50;;;19.40;39.70;;;;;;8326961;28;20037;-48
2021/05/17 17:19:27;;;;;;;0.90;0.47;;;19.40;39.70;;;;;;8326016;28;20044;-48
2021/05/17 17:23:28;;;;;;;;;;;19.50;39.70;;;;;;8325156;28;20026;-48
2021/05/17 17:27:29;;;;;;;1.13;0.40;;;19.40;39.70;;;;;;8326459;28;19917;-49
2021/05/17 17:31:30;;;;;;;0.83;0.50;;;19.40;39.70;;;;;;8329201;28;20040;-47
2021/05/17 17:35:31;;;;;;;0.80;0.50;;;19.40;39.70;;;;;;8324411;28;20037;-48
2021/05/17 17:39:31;;;;;;;0.50;0.40;;;19.40;39.70;;;;;;8326498;28;20401;-48
2021/05/17 17:43:33;;;;;;;0.73;0.50;;;19.40;39.70;;;;;;8324616;28;20076;-49
2021/05/17 17:47:33;;;;;;;;;;;19.40;39.80;;;;;;8330389;28;20072;-48
2021/05/17 17:51:43;;;;;;;0.83;0.30;;;19.40;39.80;;;;;;8308748;28;19914;-48
2021/05/17 17:55:43;;;;;;;0.50;0.47;;;19.40;39.80;;;;;;8314086;28;20041;-49
2021/05/17 17:59:44;;;;;;;0.40;0.40;;;19.40;39.90;;;;;;8293279;28;20438;-48
2021/05/17 18:03:44;;;;;;;1.40;1.10;;;19.40;39.90;;;;;;8294647;28;20478;-50
2021/05/17 18:07:45;;;;;;;0.60;0.60;;;19.40;39.90;;;;;;8295684;28;20046;-49
2021/05/17 18:11:50;;;;;;;1.53;0.70;;;19.40;39.90;;;;;;8325711;28;20025;-50
2021/05/17 18:15:50;;;;;;;0.80;0.52;;;19.40;39.90;;;;;;8325391;28;20042;-49
2021/05/17 18:19:51;;;;;;;0.73;0.50;;;19.40;39.90;;;;;;8322789;28;20128;-50
2021/05/17 18:23:52;;;;;;;0.70;0.70;;;19.40;39.90;;;;;;8329346;28;20037;-48
2021/05/17 18:27:53;;;;;;;0.90;0.80;;;19.30;39.90;;;;;;8303106;28;20060;-49
2021/05/17 18:32:06;;;;;;;1.37;1.00;;;19.30;39.90;;;;;;8308114;28;20037;-49
2021/05/17 18:36:13;;;;;;;3.00;1.17;;;19.30;39.80;;;;;;8324628;28;20041;-49
2021/05/17 18:40:14;;;;;;;2.30;1.00;;;19.30;39.90;;;;;;8324831;28;20037;-49
2021/05/17 18:45:25;;;;;;;1.35;0.75;;;19.30;39.90;;;;;;8302910;28;20038;-49
2021/05/17 18:48:36;;;;;;;2.65;1.25;;;19.30;39.90;;;;;;8307010;28;20057;-49
2021/05/17 18:52:37;;;;;;;1.88;1.08;;;19.30;39.90;;;;;;8314301;28;20034;-51
2021/05/17 18:56:41;;;;;;;2.60;1.00;;;19.30;40.00;;;;;;8299675;28;20080;-47
2021/05/17 19:00:41;;;;;;;1.02;0.80;;;19.30;39.90;;;;;;8328800;28;20191;-48
2021/05/17 19:04:42;;;;;;;1.37;0.67;;;19.30;40.00;;;;;;8322490;28;20038;-50
2021/05/17 19:08:43;;;;;;;1.50;0.70;;;19.30;39.90;;;;;;8324120;28;20041;-46
2021/05/17 19:12:46;;;;;;;1.65;0.80;;;19.30;40.00;;;;;;8356018;28;20491;-50
2021/05/17 19:16:46;;;;;;;0.85;0.80;;;19.30;40.00;;;;;;8322385;28;20111;-50
2021/05/17 19:20:47;;;;;;;1.30;0.90;;;19.30;40.00;;;;;;8328726;28;20626;-49
2021/05/17 19:24:47;;;;;;;1.07;0.80;;;19.30;40.00;;;;;;8305371;28;20493;-49
2021/05/17 19:28:49;;;;;;;2.13;1.03;;;19.30;40.00;;;;;;8289900;28;20049;-48
2021/05/17 19:32:50;;;;;;;1.27;0.80;;;19.30;40.10;;;;;;8305461;28;20071;-49
2021/05/17 19:36:52;;;;;;;1.35;0.55;;;19.30;40.10;;;;;;8334448;28;20150;-49
2021/05/17 19:40:53;;;;;;;1.67;0.70;;;19.30;40.10;;;;;;8327987;28;20033;-50
2021/05/17 19:44:54;;;;;;;1.52;0.80;;;19.30;40.10;;;;;;8329930;28;20034;-47
2021/05/17 19:49:05;;;;;;;1.10;0.83;;;19.30;40.10;;;;;;8329420;28;20033;-49
2021/05/17 19:53:06;;;;;;;;;;;19.30;40.10;;;;;;8298841;28;20387;-49
2021/05/17 19:57:07;;;;;;;1.20;0.80;;;19.20;40.10;;;;;;8301046;28;19916;-49
2021/05/17 20:01:08;;;;;;;0.95;0.80;;;19.20;40.10;;;;;;8296736;28;20041;-49
2021/05/17 20:05:09;;;;;;;0.53;0.53;;;19.30;40.20;;;;;;8294821;28;20423;-50
2021/05/17 20:09:10;;;;;;;;;;;19.30;40.20;;;;;;8296805;28;20544;-49
2021/05/17 20:13:10;;;;;;;1.43;0.60;;;19.20;40.10;;;;;;8300774;28;19917;-50
2021/05/17 20:17:11;;;;;;;1.03;0.57;;;19.20;40.10;;;;;;8299086;28;20026;-49
2021/05/17 20:21:11;;;;;;;0.67;0.53;;;19.20;40.00;;;;;;8328641;28;20049;-51
2021/05/17 20:25:13;;;;;;;2.23;0.80;;;19.30;40.00;;;;;;8328622;28;20120;-49
2021/05/17 20:29:13;;;;;;;;;;;19.20;40.00;;;;;;8331574;28;20116;-50
2021/05/17 20:37:34;;;;;;;0.85;0.60;;;19.20;40.00;;;;;;8326452;28;20064;-50
2021/05/17 20:41:35;;;;;;;0.87;0.57;;;19.30;40.00;;;;;;8327914;28;20038;-52
2021/05/17 20:45:36;;;;;;;1.10;0.63;;;19.20;39.90;;;;;;8327631;28;20045;-52
2021/05/17 20:49:37;;;;;;;1.98;0.82;;;19.20;39.90;;;;;;8330465;28;20076;-53
2021/05/17 20:53:38;;;;;;;1.02;0.70;;;19.20;39.90;;;;;;8327641;28;20553;-51
2021/05/17 20:57:39;;;;;;;2.40;0.75;;;19.20;39.90;;;;;;8327698;28;20554;-49
2021/05/17 21:01:40;;;;;;;1.00;0.73;;;19.20;39.90;;;;;;8325725;28;20041;-52
2021/05/17 21:05:40;;;;;;;0.60;0.53;;;19.20;39.90;;;;;;8332197;28;20029;-51
2021/05/17 21:09:41;;;;;;;0.90;0.70;;;19.20;39.90;;;;;;8327072;28;20140;-50
2021/05/17 21:13:41;;;;;;;1.07;0.70;;;19.20;39.90;;;;;;8325414;28;20175;-49
2021/05/17 21:17:42;;;;;;;1.13;0.70;;;19.20;39.90;;;;;;8326944;28;20046;-51
2021/05/17 21:21:43;;;;;;;1.10;0.60;;;19.10;39.90;;;;;;8326807;28;20098;-49
2021/05/17 21:25:46;;;;;;;0.57;0.53;;;19.10;39.90;;;;;;8329505;28;20264;-49
2021/05/17 21:29:46;;;;;;;0.63;0.50;;;19.10;39.90;;;;;;8326904;28;20072;-50
2021/05/17 21:33:47;;;;;;;2.60;0.60;;;19.10;39.90;;;;;;8325038;28;20053;-49